sensor_id;sensor_type;location;lat;lon;timestamp;P1;durP1;ratioP1;P2;durP2;ratioP2
27684;SDS011;46113;50.130;8.526;2023-08-01T00:00:48;3.58;;;2.28;;
27684;SDS011;46113;50.130;8.526;2023-08-01T00:03:16;5.60;;;3.00;;
27684;SDS011;46113;50.130;8.526;2023-08-01T00:05:44;4.82;;;2.40;;
27684;SDS011;46113;50.130;8.526;2023-08-01T00:08:13;5.97;;;2.22;;
27684;SDS011;46113;50.130;8.526;2023-08-01T00:10:43;8.80;;;2.17;;
27684;SDS011;46113;50.130;8.526;2023-08-01T00:13:11;7.80;;;2.72;;
27684;SDS011;46113;50.130;8.526;2023-08-01T00:15:39;3.08;;;2.10;;
27684;SDS011;46113;50.130;8.526;2023-08-01T00:18:13;3.33;;;1.88;;
27684;SDS011;46113;50.130;8.526;2023-08-01T00:20:41;4.57;;;2.13;;
27684;SDS011;46113;50.130;8.526;2023-08-01T00:23:08;3.90;;;2.70;;
27684;SDS011;46113;50.130;8.526;2023-08-01T00:25:36;7.20;;;2.40;;
27684;SDS011;46113;50.130;8.526;2023-08-01T00:28:03;4.55;;;1.80;;
27684;SDS011;46113;50.130;8.526;2023-08-01T00:30:31;7.22;;;1.80;;
27684;SDS011;46113;50.130;8.526;2023-08-01T00:32:59;2.72;;;1.98;;
27684;SDS011;46113;50.130;8.526;2023-08-01T00:35:28;1.80;;;1.63;;
27684;SDS011;46113;50.130;8.526;2023-08-01T00:37:55;8.70;;;1.95;;
27684;SDS011;46113;50.130;8.526;2023-08-01T00:40:23;8.68;;;2.10;;
27684;SDS011;46113;50.130;8.526;2023-08-01T00:42:52;5.15;;;2.20;;
27684;SDS011;46113;50.130;8.526;2023-08-01T00:45:23;4.72;;;1.15;;
27684;SDS011;46113;50.130;8.526;2023-08-01T00:47:54;2.50;;;1.52;;
27684;SDS011;46113;50.130;8.526;2023-08-01T00:50:22;5.35;;;2.00;;
27684;SDS011;46113;50.130;8.526;2023-08-01T00:52:50;3.90;;;1.70;;
27684;SDS011;46113;50.130;8.526;2023-08-01T00:55:18;4.25;;;1.80;;
27684;SDS011;46113;50.130;8.526;2023-08-01T00:57:46;4.18;;;2.17;;
27684;SDS011;46113;50.130;8.526;2023-08-01T01:00:14;1.90;;;1.45;;
27684;SDS011;46113;50.130;8.526;2023-08-01T01:02:42;3.15;;;1.75;;
27684;SDS011;46113;50.130;8.526;2023-08-01T01:05:10;3.58;;;1.60;;
27684;SDS011;46113;50.130;8.526;2023-08-01T01:07:37;2.70;;;1.23;;
27684;SDS011;46113;50.130;8.526;2023-08-01T01:10:07;5.15;;;1.85;;
27684;SDS011;46113;50.130;8.526;2023-08-01T01:12:34;1.92;;;1.38;;
27684;SDS011;46113;50.130;8.526;2023-08-01T01:15:01;2.22;;;1.20;;
27684;SDS011;46113;50.130;8.526;2023-08-01T01:17:29;1.98;;;0.63;;
27684;SDS011;46113;50.130;8.526;2023-08-01T01:19:56;1.30;;;1.05;;
27684;SDS011;46113;50.130;8.526;2023-08-01T01:22:27;6.03;;;1.13;;
27684;SDS011;46113;50.130;8.526;2023-08-01T01:24:57;0.85;;;0.80;;
27684;SDS011;46113;50.130;8.526;2023-08-01T01:27:27;1.67;;;0.85;;
27684;SDS011;46113;50.130;8.526;2023-08-01T01:29:58;2.80;;;0.90;;
27684;SDS011;46113;50.130;8.526;2023-08-01T01:32:27;2.45;;;0.80;;
27684;SDS011;46113;50.130;8.526;2023-08-01T01:34:56;3.60;;;1.40;;
27684;SDS011;46113;50.130;8.526;2023-08-01T01:37:24;4.20;;;1.00;;
27684;SDS011;46113;50.130;8.526;2023-08-01T01:39:57;7.13;;;1.15;;
27684;SDS011;46113;50.130;8.526;2023-08-01T01:42:25;3.85;;;1.10;;
27684;SDS011;46113;50.130;8.526;2023-08-01T01:44:53;1.02;;;0.88;;
27684;SDS011;46113;50.130;8.526;2023-08-01T01:47:36;1.60;;;1.13;;
27684;SDS011;46113;50.130;8.526;2023-08-01T01:50:05;1.50;;;1.20;;
27684;SDS011;46113;50.130;8.526;2023-08-01T01:52:33;4.88;;;1.08;;
27684;SDS011;46113;50.130;8.526;2023-08-01T01:55:01;1.20;;;0.80;;
27684;SDS011;46113;50.130;8.526;2023-08-01T01:57:29;2.25;;;2.05;;
27684;SDS011;46113;50.130;8.526;2023-08-01T01:59:56;3.63;;;1.05;;
27684;SDS011;46113;50.130;8.526;2023-08-01T02:02:24;1.58;;;1.10;;
27684;SDS011;46113;50.130;8.526;2023-08-01T02:04:53;1.60;;;0.93;;
27684;SDS011;46113;50.130;8.526;2023-08-01T02:07:21;1.33;;;1.10;;
27684;SDS011;46113;50.130;8.526;2023-08-01T02:09:49;1.70;;;0.98;;
27684;SDS011;46113;50.130;8.526;2023-08-01T02:12:17;1.83;;;1.40;;
27684;SDS011;46113;50.130;8.526;2023-08-01T02:14:44;2.05;;;1.77;;
27684;SDS011;46113;50.130;8.526;2023-08-01T02:17:12;3.22;;;1.10;;
27684;SDS011;46113;50.130;8.526;2023-08-01T02:19:40;1.52;;;1.05;;
27684;SDS011;46113;50.130;8.526;2023-08-01T02:22:08;2.88;;;1.27;;
27684;SDS011;46113;50.130;8.526;2023-08-01T02:24:36;2.10;;;1.70;;
27684;SDS011;46113;50.130;8.526;2023-08-01T02:27:04;2.85;;;2.30;;
27684;SDS011;46113;50.130;8.526;2023-08-01T02:29:32;4.68;;;1.70;;
27684;SDS011;46113;50.130;8.526;2023-08-01T02:31:59;3.38;;;2.00;;
27684;SDS011;46113;50.130;8.526;2023-08-01T02:34:26;5.78;;;2.15;;
27684;SDS011;46113;50.130;8.526;2023-08-01T02:36:54;4.32;;;1.83;;
27684;SDS011;46113;50.130;8.526;2023-08-01T02:39:21;3.88;;;2.28;;
27684;SDS011;46113;50.130;8.526;2023-08-01T02:41:51;6.15;;;2.28;;
27684;SDS011;46113;50.130;8.526;2023-08-01T02:44:19;3.10;;;1.95;;
27684;SDS011;46113;50.130;8.526;2023-08-01T02:46:46;3.17;;;1.92;;
27684;SDS011;46113;50.130;8.526;2023-08-01T02:49:13;4.20;;;2.00;;
27684;SDS011;46113;50.130;8.526;2023-08-01T02:51:42;3.42;;;1.95;;
27684;SDS011;46113;50.130;8.526;2023-08-01T02:54:10;3.50;;;2.17;;
27684;SDS011;46113;50.130;8.526;2023-08-01T02:56:37;3.75;;;2.08;;
27684;SDS011;46113;50.130;8.526;2023-08-01T02:59:08;3.92;;;1.83;;
27684;SDS011;46113;50.130;8.526;2023-08-01T03:01:39;2.70;;;1.80;;
27684;SDS011;46113;50.130;8.526;2023-08-01T03:04:07;3.67;;;2.45;;
27684;SDS011;46113;50.130;8.526;2023-08-01T03:06:37;3.97;;;2.40;;
27684;SDS011;46113;50.130;8.526;2023-08-01T03:09:06;2.42;;;1.77;;
27684;SDS011;46113;50.130;8.526;2023-08-01T03:11:36;2.65;;;1.95;;
27684;SDS011;46113;50.130;8.526;2023-08-01T03:14:07;2.58;;;1.50;;
27684;SDS011;46113;50.130;8.526;2023-08-01T03:16:39;6.38;;;1.50;;
27684;SDS011;46113;50.130;8.526;2023-08-01T03:19:07;3.33;;;1.70;;
27684;SDS011;46113;50.130;8.526;2023-08-01T03:21:35;3.67;;;2.00;;
27684;SDS011;46113;50.130;8.526;2023-08-01T03:24:07;3.35;;;1.75;;
27684;SDS011;46113;50.130;8.526;2023-08-01T03:26:36;2.95;;;1.80;;
27684;SDS011;46113;50.130;8.526;2023-08-01T03:29:04;3.00;;;1.67;;
27684;SDS011;46113;50.130;8.526;2023-08-01T03:31:33;2.83;;;1.35;;
27684;SDS011;46113;50.130;8.526;2023-08-01T03:34:02;2.83;;;1.42;;
27684;SDS011;46113;50.130;8.526;2023-08-01T03:36:31;5.93;;;1.50;;
27684;SDS011;46113;50.130;8.526;2023-08-01T03:39:04;1.45;;;1.33;;
27684;SDS011;46113;50.130;8.526;2023-08-01T03:41:39;3.10;;;1.50;;
27684;SDS011;46113;50.130;8.526;2023-08-01T03:44:07;4.07;;;1.20;;
27684;SDS011;46113;50.130;8.526;2023-08-01T03:46:34;3.40;;;1.90;;
27684;SDS011;46113;50.130;8.526;2023-08-01T03:49:02;3.85;;;1.50;;
27684;SDS011;46113;50.130;8.526;2023-08-01T03:51:31;10.48;;;2.00;;
27684;SDS011;46113;50.130;8.526;2023-08-01T03:53:58;5.25;;;1.88;;
27684;SDS011;46113;50.130;8.526;2023-08-01T03:56:39;2.42;;;1.40;;
27684;SDS011;46113;50.130;8.526;2023-08-01T03:59:15;4.03;;;1.20;;
27684;SDS011;46113;50.130;8.526;2023-08-01T04:01:44;4.28;;;1.40;;
27684;SDS011;46113;50.130;8.526;2023-08-01T04:04:11;3.28;;;1.40;;
27684;SDS011;46113;50.130;8.526;2023-08-01T04:06:39;1.70;;;1.10;;
27684;SDS011;46113;50.130;8.526;2023-08-01T04:09:13;1.63;;;1.50;;
27684;SDS011;46113;50.130;8.526;2023-08-01T04:11:45;7.32;;;1.15;;
27684;SDS011;46113;50.130;8.526;2023-08-01T04:17:21;1.63;;;1.25;;
27684;SDS011;46113;50.130;8.526;2023-08-01T04:19:48;5.10;;;2.00;;
27684;SDS011;46113;50.130;8.526;2023-08-01T04:22:14;3.42;;;1.60;;
27684;SDS011;46113;50.130;8.526;2023-08-01T04:24:41;1.58;;;1.30;;
27684;SDS011;46113;50.130;8.526;2023-08-01T04:27:08;3.47;;;1.73;;
27684;SDS011;46113;50.130;8.526;2023-08-01T04:29:34;1.52;;;0.90;;
27684;SDS011;46113;50.130;8.526;2023-08-01T04:32:01;2.70;;;1.55;;
27684;SDS011;46113;50.130;8.526;2023-08-01T04:34:27;2.75;;;0.80;;
27684;SDS011;46113;50.130;8.526;2023-08-01T04:36:54;1.58;;;1.30;;
27684;SDS011;46113;50.130;8.526;2023-08-01T04:39:21;1.58;;;1.15;;
27684;SDS011;46113;50.130;8.526;2023-08-01T04:41:48;1.60;;;1.30;;
27684;SDS011;46113;50.130;8.526;2023-08-01T04:44:16;1.23;;;0.95;;
27684;SDS011;46113;50.130;8.526;2023-08-01T04:46:42;2.55;;;1.30;;
27684;SDS011;46113;50.130;8.526;2023-08-01T04:49:09;1.17;;;0.80;;
27684;SDS011;46113;50.130;8.526;2023-08-01T04:51:36;1.65;;;1.17;;
27684;SDS011;46113;50.130;8.526;2023-08-01T04:54:02;3.30;;;1.35;;
27684;SDS011;46113;50.130;8.526;2023-08-01T04:56:29;2.38;;;1.58;;
27684;SDS011;46113;50.130;8.526;2023-08-01T04:58:56;2.03;;;1.35;;
27684;SDS011;46113;50.130;8.526;2023-08-01T05:01:22;2.65;;;1.50;;
27684;SDS011;46113;50.130;8.526;2023-08-01T05:03:49;2.17;;;1.13;;
27684;SDS011;46113;50.130;8.526;2023-08-01T05:06:16;2.38;;;1.83;;
27684;SDS011;46113;50.130;8.526;2023-08-01T05:08:42;2.10;;;1.55;;
27684;SDS011;46113;50.130;8.526;2023-08-01T05:11:09;3.85;;;1.55;;
27684;SDS011;46113;50.130;8.526;2023-08-01T05:13:36;2.63;;;1.63;;
27684;SDS011;46113;50.130;8.526;2023-08-01T05:16:05;4.55;;;1.35;;
27684;SDS011;46113;50.130;8.526;2023-08-01T05:18:33;1.40;;;1.20;;
27684;SDS011;46113;50.130;8.526;2023-08-01T05:21:00;2.97;;;1.85;;
27684;SDS011;46113;50.130;8.526;2023-08-01T05:23:29;1.70;;;1.52;;
27684;SDS011;46113;50.130;8.526;2023-08-01T05:25:55;2.03;;;1.27;;
27684;SDS011;46113;50.130;8.526;2023-08-01T05:28:22;3.42;;;1.10;;
27684;SDS011;46113;50.130;8.526;2023-08-01T05:30:49;2.92;;;0.98;;
27684;SDS011;46113;50.130;8.526;2023-08-01T05:33:17;2.80;;;1.02;;
27684;SDS011;46113;50.130;8.526;2023-08-01T05:35:43;1.67;;;0.80;;
27684;SDS011;46113;50.130;8.526;2023-08-01T05:38:11;1.45;;;0.75;;
27684;SDS011;46113;50.130;8.526;2023-08-01T05:40:38;0.80;;;0.50;;
27684;SDS011;46113;50.130;8.526;2023-08-01T05:43:06;1.60;;;0.70;;
27684;SDS011;46113;50.130;8.526;2023-08-01T05:45:35;2.25;;;0.73;;
27684;SDS011;46113;50.130;8.526;2023-08-01T05:48:02;0.43;;;0.43;;
27684;SDS011;46113;50.130;8.526;2023-08-01T05:50:29;0.95;;;0.65;;
27684;SDS011;46113;50.130;8.526;2023-08-01T05:52:55;5.15;;;0.63;;
27684;SDS011;46113;50.130;8.526;2023-08-01T05:55:22;1.23;;;0.60;;
27684;SDS011;46113;50.130;8.526;2023-08-01T05:57:49;2.50;;;0.68;;
27684;SDS011;46113;50.130;8.526;2023-08-01T06:00:19;1.30;;;0.70;;
27684;SDS011;46113;50.130;8.526;2023-08-01T06:02:48;1.65;;;0.73;;
27684;SDS011;46113;50.130;8.526;2023-08-01T06:05:16;2.38;;;0.55;;
27684;SDS011;46113;50.130;8.526;2023-08-01T06:07:42;1.00;;;0.65;;
27684;SDS011;46113;50.130;8.526;2023-08-01T06:10:09;2.28;;;0.95;;
27684;SDS011;46113;50.130;8.526;2023-08-01T06:12:36;0.93;;;0.70;;
27684;SDS011;46113;50.130;8.526;2023-08-01T06:15:03;0.95;;;0.73;;
27684;SDS011;46113;50.130;8.526;2023-08-01T06:17:31;1.13;;;0.88;;
27684;SDS011;46113;50.130;8.526;2023-08-01T06:19:57;0.77;;;0.77;;
27684;SDS011;46113;50.130;8.526;2023-08-01T06:22:24;1.45;;;1.05;;
27684;SDS011;46113;50.130;8.526;2023-08-01T06:24:51;5.75;;;1.02;;
27684;SDS011;46113;50.130;8.526;2023-08-01T06:27:17;2.00;;;1.10;;
27684;SDS011;46113;50.130;8.526;2023-08-01T06:29:44;2.83;;;1.13;;
27684;SDS011;46113;50.130;8.526;2023-08-01T06:32:11;1.80;;;1.27;;
27684;SDS011;46113;50.130;8.526;2023-08-01T06:34:38;2.70;;;1.10;;
27684;SDS011;46113;50.130;8.526;2023-08-01T06:37:05;2.95;;;1.30;;
27684;SDS011;46113;50.130;8.526;2023-08-01T06:39:31;3.08;;;1.25;;
27684;SDS011;46113;50.130;8.526;2023-08-01T06:41:58;1.70;;;1.13;;
27684;SDS011;46113;50.130;8.526;2023-08-01T06:44:24;2.85;;;1.15;;
27684;SDS011;46113;50.130;8.526;2023-08-01T06:46:51;2.47;;;0.90;;
27684;SDS011;46113;50.130;8.526;2023-08-01T06:49:18;1.40;;;1.15;;
27684;SDS011;46113;50.130;8.526;2023-08-01T06:51:44;1.63;;;1.05;;
27684;SDS011;46113;50.130;8.526;2023-08-01T06:54:11;1.83;;;1.15;;
27684;SDS011;46113;50.130;8.526;2023-08-01T06:56:38;1.63;;;0.88;;
27684;SDS011;46113;50.130;8.526;2023-08-01T06:59:05;2.45;;;1.35;;
27684;SDS011;46113;50.130;8.526;2023-08-01T07:01:32;1.98;;;1.58;;
27684;SDS011;46113;50.130;8.526;2023-08-01T07:03:59;2.40;;;1.50;;
27684;SDS011;46113;50.130;8.526;2023-08-01T07:06:26;1.77;;;1.38;;
27684;SDS011;46113;50.130;8.526;2023-08-01T07:08:52;1.33;;;1.10;;
27684;SDS011;46113;50.130;8.526;2023-08-01T07:11:19;2.25;;;1.10;;
27684;SDS011;46113;50.130;8.526;2023-08-01T07:13:46;1.50;;;1.00;;
27684;SDS011;46113;50.130;8.526;2023-08-01T07:16:12;1.65;;;1.38;;
27684;SDS011;46113;50.130;8.526;2023-08-01T07:18:39;1.58;;;0.88;;
27684;SDS011;46113;50.130;8.526;2023-08-01T07:21:06;1.00;;;0.73;;
27684;SDS011;46113;50.130;8.526;2023-08-01T07:23:33;0.50;;;0.40;;
27684;SDS011;46113;50.130;8.526;2023-08-01T07:26:00;0.93;;;0.30;;
27684;SDS011;46113;50.130;8.526;2023-08-01T07:28:27;0.93;;;0.40;;
27684;SDS011;46113;50.130;8.526;2023-08-01T07:33:28;0.40;;;0.40;;
27684;SDS011;46113;50.130;8.526;2023-08-01T07:35:55;0.90;;;0.50;;
27684;SDS011;46113;50.130;8.526;2023-08-01T07:38:22;1.55;;;0.50;;
27684;SDS011;46113;50.130;8.526;2023-08-01T07:40:49;0.90;;;0.50;;
27684;SDS011;46113;50.130;8.526;2023-08-01T07:43:16;0.38;;;0.30;;
27684;SDS011;46113;50.130;8.526;2023-08-01T07:45:43;0.63;;;0.60;;
27684;SDS011;46113;50.130;8.526;2023-08-01T07:48:09;0.95;;;0.50;;
27684;SDS011;46113;50.130;8.526;2023-08-01T07:50:36;1.70;;;0.70;;
27684;SDS011;46113;50.130;8.526;2023-08-01T07:53:03;0.90;;;0.47;;
27684;SDS011;46113;50.130;8.526;2023-08-01T07:55:32;2.08;;;0.30;;
27684;SDS011;46113;50.130;8.526;2023-08-01T07:58:01;2.38;;;0.68;;
27684;SDS011;46113;50.130;8.526;2023-08-01T08:00:28;0.68;;;0.38;;
27684;SDS011;46113;50.130;8.526;2023-08-01T08:02:54;0.32;;;0.32;;
27684;SDS011;46113;50.130;8.526;2023-08-01T08:05:21;0.20;;;0.20;;
27684;SDS011;46113;50.130;8.526;2023-08-01T08:07:48;3.60;;;0.73;;
27684;SDS011;46113;50.130;8.526;2023-08-01T08:10:15;1.20;;;0.68;;
27684;SDS011;46113;50.130;8.526;2023-08-01T08:12:42;0.50;;;0.50;;
27684;SDS011;46113;50.130;8.526;2023-08-01T08:15:08;3.22;;;0.60;;
27684;SDS011;46113;50.130;8.526;2023-08-01T08:17:35;3.03;;;0.50;;
27684;SDS011;46113;50.130;8.526;2023-08-01T08:20:02;1.00;;;0.90;;
27684;SDS011;46113;50.130;8.526;2023-08-01T08:22:29;1.27;;;0.65;;
27684;SDS011;46113;50.130;8.526;2023-08-01T08:24:56;1.50;;;0.80;;
27684;SDS011;46113;50.130;8.526;2023-08-01T08:27:23;3.22;;;1.20;;
27684;SDS011;46113;50.130;8.526;2023-08-01T08:29:52;1.83;;;0.82;;
27684;SDS011;46113;50.130;8.526;2023-08-01T08:32:19;0.88;;;0.80;;
27684;SDS011;46113;50.130;8.526;2023-08-01T08:34:49;1.10;;;0.82;;
27684;SDS011;46113;50.130;8.526;2023-08-01T08:37:16;1.60;;;0.85;;
27684;SDS011;46113;50.130;8.526;2023-08-01T08:39:42;1.30;;;0.60;;
27684;SDS011;46113;50.130;8.526;2023-08-01T08:42:09;1.33;;;0.60;;
27684;SDS011;46113;50.130;8.526;2023-08-01T08:44:42;3.05;;;0.90;;
27684;SDS011;46113;50.130;8.526;2023-08-01T08:47:10;1.73;;;0.75;;
27684;SDS011;46113;50.130;8.526;2023-08-01T08:49:39;3.75;;;0.90;;
27684;SDS011;46113;50.130;8.526;2023-08-01T08:52:07;0.90;;;0.70;;
27684;SDS011;46113;50.130;8.526;2023-08-01T08:54:35;1.35;;;1.23;;
27684;SDS011;46113;50.130;8.526;2023-08-01T08:57:05;0.68;;;0.60;;
27684;SDS011;46113;50.130;8.526;2023-08-01T08:59:33;0.60;;;0.55;;
27684;SDS011;46113;50.130;8.526;2023-08-01T09:02:01;2.75;;;0.77;;
27684;SDS011;46113;50.130;8.526;2023-08-01T09:04:30;1.25;;;0.60;;
27684;SDS011;46113;50.130;8.526;2023-08-01T09:07:02;0.85;;;0.77;;
27684;SDS011;46113;50.130;8.526;2023-08-01T09:09:34;1.80;;;0.90;;
27684;SDS011;46113;50.130;8.526;2023-08-01T09:12:01;2.25;;;0.57;;
27684;SDS011;46113;50.130;8.526;2023-08-01T09:14:27;2.28;;;0.68;;
27684;SDS011;46113;50.130;8.526;2023-08-01T09:16:55;2.60;;;0.80;;
27684;SDS011;46113;50.130;8.526;2023-08-01T09:19:23;1.35;;;0.80;;
27684;SDS011;46113;50.130;8.526;2023-08-01T09:21:51;3.10;;;0.60;;
27684;SDS011;46113;50.130;8.526;2023-08-01T09:24:19;2.83;;;0.75;;
27684;SDS011;46113;50.130;8.526;2023-08-01T09:26:47;2.60;;;0.70;;
27684;SDS011;46113;50.130;8.526;2023-08-01T09:29:19;0.70;;;0.50;;
27684;SDS011;46113;50.130;8.526;2023-08-01T09:31:46;6.30;;;1.35;;
27684;SDS011;46113;50.130;8.526;2023-08-01T09:34:21;2.33;;;0.70;;
27684;SDS011;46113;50.130;8.526;2023-08-01T09:36:49;2.67;;;0.90;;
27684;SDS011;46113;50.130;8.526;2023-08-01T09:39:18;0.60;;;0.60;;
27684;SDS011;46113;50.130;8.526;2023-08-01T09:41:46;0.55;;;0.55;;
27684;SDS011;46113;50.130;8.526;2023-08-01T09:44:22;1.42;;;0.63;;
27684;SDS011;46113;50.130;8.526;2023-08-01T09:49:26;2.03;;;0.90;;
27684;SDS011;46113;50.130;8.526;2023-08-01T09:51:57;1.70;;;0.90;;
27684;SDS011;46113;50.130;8.526;2023-08-01T09:54:24;1.13;;;0.70;;
27684;SDS011;46113;50.130;8.526;2023-08-01T09:56:52;2.58;;;0.90;;
27684;SDS011;46113;50.130;8.526;2023-08-01T09:59:23;2.03;;;0.88;;
27684;SDS011;46113;50.130;8.526;2023-08-01T10:01:52;0.65;;;0.65;;
27684;SDS011;46113;50.130;8.526;2023-08-01T10:04:21;1.90;;;0.90;;
27684;SDS011;46113;50.130;8.526;2023-08-01T10:06:53;3.22;;;0.98;;
27684;SDS011;46113;50.130;8.526;2023-08-01T10:09:23;2.33;;;1.00;;
27684;SDS011;46113;50.130;8.526;2023-08-01T10:11:51;1.77;;;0.88;;
27684;SDS011;46113;50.130;8.526;2023-08-01T10:14:19;0.70;;;0.70;;
27684;SDS011;46113;50.130;8.526;2023-08-01T10:16:46;2.97;;;0.70;;
27684;SDS011;46113;50.130;8.526;2023-08-01T10:19:13;2.92;;;0.50;;
27684;SDS011;46113;50.130;8.526;2023-08-01T10:21:43;1.77;;;0.90;;
27684;SDS011;46113;50.130;8.526;2023-08-01T10:24:10;1.65;;;0.85;;
27684;SDS011;46113;50.130;8.526;2023-08-01T10:26:39;0.60;;;0.60;;
27684;SDS011;46113;50.130;8.526;2023-08-01T10:29:06;0.82;;;0.82;;
27684;SDS011;46113;50.130;8.526;2023-08-01T10:31:33;3.30;;;0.85;;
27684;SDS011;46113;50.130;8.526;2023-08-01T10:34:03;3.30;;;0.75;;
27684;SDS011;46113;50.130;8.526;2023-08-01T10:36:41;3.50;;;0.55;;
27684;SDS011;46113;50.130;8.526;2023-08-01T10:39:08;2.95;;;0.90;;
27684;SDS011;46113;50.130;8.526;2023-08-01T10:41:46;1.50;;;0.70;;
27684;SDS011;46113;50.130;8.526;2023-08-01T10:44:24;2.25;;;0.90;;
27684;SDS011;46113;50.130;8.526;2023-08-01T10:46:52;2.17;;;0.90;;
27684;SDS011;46113;50.130;8.526;2023-08-01T10:49:38;1.92;;;0.85;;
27684;SDS011;46113;50.130;8.526;2023-08-01T10:52:20;1.83;;;0.93;;
27684;SDS011;46113;50.130;8.526;2023-08-01T10:55:00;1.42;;;1.00;;
27684;SDS011;46113;50.130;8.526;2023-08-01T10:57:33;1.45;;;0.90;;
27684;SDS011;46113;50.130;8.526;2023-08-01T11:00:03;1.40;;;0.70;;
27684;SDS011;46113;50.130;8.526;2023-08-01T11:02:39;2.85;;;1.08;;
27684;SDS011;46113;50.130;8.526;2023-08-01T11:05:06;4.53;;;0.90;;
27684;SDS011;46113;50.130;8.526;2023-08-01T11:07:40;1.60;;;0.55;;
27684;SDS011;46113;50.130;8.526;2023-08-01T11:10:08;4.22;;;1.00;;
27684;SDS011;46113;50.130;8.526;2023-08-01T11:12:43;1.25;;;0.90;;
27684;SDS011;46113;50.130;8.526;2023-08-01T11:15:14;2.35;;;0.88;;
27684;SDS011;46113;50.130;8.526;2023-08-01T11:17:54;2.60;;;0.85;;
27684;SDS011;46113;50.130;8.526;2023-08-01T11:20:30;2.42;;;0.60;;
27684;SDS011;46113;50.130;8.526;2023-08-01T11:22:59;1.38;;;0.77;;
27684;SDS011;46113;50.130;8.526;2023-08-01T11:25:36;1.52;;;0.60;;
27684;SDS011;46113;50.130;8.526;2023-08-01T11:28:06;1.33;;;0.80;;
27684;SDS011;46113;50.130;8.526;2023-08-01T11:30:35;1.35;;;0.88;;
27684;SDS011;46113;50.130;8.526;2023-08-01T11:38:39;3.30;;;1.10;;
27684;SDS011;46113;50.130;8.526;2023-08-01T11:41:12;4.82;;;0.85;;
27684;SDS011;46113;50.130;8.526;2023-08-01T11:43:43;2.92;;;0.98;;
27684;SDS011;46113;50.130;8.526;2023-08-01T11:46:16;1.33;;;1.02;;
27684;SDS011;46113;50.130;8.526;2023-08-01T11:48:46;2.15;;;0.73;;
27684;SDS011;46113;50.130;8.526;2023-08-01T11:51:16;1.23;;;0.70;;
27684;SDS011;46113;50.130;8.526;2023-08-01T11:53:57;1.75;;;0.80;;
27684;SDS011;46113;50.130;8.526;2023-08-01T11:56:29;2.05;;;1.02;;
27684;SDS011;46113;50.130;8.526;2023-08-01T11:58:58;2.83;;;1.15;;
27684;SDS011;46113;50.130;8.526;2023-08-01T12:01:25;1.08;;;0.98;;
27684;SDS011;46113;50.130;8.526;2023-08-01T12:03:53;1.75;;;0.95;;
27684;SDS011;46113;50.130;8.526;2023-08-01T12:06:22;2.13;;;0.98;;
27684;SDS011;46113;50.130;8.526;2023-08-01T12:08:53;1.67;;;0.90;;
27684;SDS011;46113;50.130;8.526;2023-08-01T12:13:47;1.85;;;1.00;;
27684;SDS011;46113;50.130;8.526;2023-08-01T12:16:14;1.27;;;0.70;;
27684;SDS011;46113;50.130;8.526;2023-08-01T12:18:46;2.05;;;0.88;;
27684;SDS011;46113;50.130;8.526;2023-08-01T12:21:25;1.88;;;0.85;;
27684;SDS011;46113;50.130;8.526;2023-08-01T12:23:52;1.33;;;1.05;;
27684;SDS011;46113;50.130;8.526;2023-08-01T12:26:19;4.32;;;1.50;;
27684;SDS011;46113;50.130;8.526;2023-08-01T12:28:47;1.38;;;0.93;;
27684;SDS011;46113;50.130;8.526;2023-08-01T12:31:17;2.78;;;0.88;;
27684;SDS011;46113;50.130;8.526;2023-08-01T12:33:45;2.55;;;1.05;;
27684;SDS011;46113;50.130;8.526;2023-08-01T12:36:13;1.00;;;0.80;;
27684;SDS011;46113;50.130;8.526;2023-08-01T12:38:40;1.27;;;0.90;;
27684;SDS011;46113;50.130;8.526;2023-08-01T12:41:07;1.02;;;0.90;;
27684;SDS011;46113;50.130;8.526;2023-08-01T12:43:34;2.95;;;0.85;;
27684;SDS011;46113;50.130;8.526;2023-08-01T12:46:01;0.80;;;0.65;;
27684;SDS011;46113;50.130;8.526;2023-08-01T12:48:28;1.10;;;0.93;;
27684;SDS011;46113;50.130;8.526;2023-08-01T12:50:55;0.88;;;0.80;;
27684;SDS011;46113;50.130;8.526;2023-08-01T12:53:22;1.13;;;0.98;;
27684;SDS011;46113;50.130;8.526;2023-08-01T12:55:52;1.27;;;0.80;;
27684;SDS011;46113;50.130;8.526;2023-08-01T12:58:19;2.08;;;0.98;;
27684;SDS011;46113;50.130;8.526;2023-08-01T13:00:46;3.00;;;1.30;;
27684;SDS011;46113;50.130;8.526;2023-08-01T13:03:13;1.92;;;0.90;;
27684;SDS011;46113;50.130;8.526;2023-08-01T13:05:40;0.70;;;0.55;;
27684;SDS011;46113;50.130;8.526;2023-08-01T13:08:08;2.30;;;1.02;;
27684;SDS011;46113;50.130;8.526;2023-08-01T13:10:36;0.82;;;0.60;;
27684;SDS011;46113;50.130;8.526;2023-08-01T13:13:04;1.25;;;0.77;;
27684;SDS011;46113;50.130;8.526;2023-08-01T13:15:32;0.63;;;0.63;;
27684;SDS011;46113;50.130;8.526;2023-08-01T13:17:58;1.23;;;0.75;;
27684;SDS011;46113;50.130;8.526;2023-08-01T13:20:25;1.83;;;0.75;;
27684;SDS011;46113;50.130;8.526;2023-08-01T13:22:55;1.00;;;0.70;;
27684;SDS011;46113;50.130;8.526;2023-08-01T13:25:22;2.45;;;0.60;;
27684;SDS011;46113;50.130;8.526;2023-08-01T13:27:48;0.90;;;0.80;;
27684;SDS011;46113;50.130;8.526;2023-08-01T13:30:15;2.63;;;0.60;;
27684;SDS011;46113;50.130;8.526;2023-08-01T13:32:44;2.88;;;0.60;;
27684;SDS011;46113;50.130;8.526;2023-08-01T13:35:12;0.45;;;0.40;;
27684;SDS011;46113;50.130;8.526;2023-08-01T13:37:39;1.02;;;0.93;;
27684;SDS011;46113;50.130;8.526;2023-08-01T13:40:08;1.08;;;0.70;;
27684;SDS011;46113;50.130;8.526;2023-08-01T13:42:37;2.28;;;0.60;;
27684;SDS011;46113;50.130;8.526;2023-08-01T13:45:05;2.60;;;0.70;;
27684;SDS011;46113;50.130;8.526;2023-08-01T13:47:32;5.53;;;0.80;;
27684;SDS011;46113;50.130;8.526;2023-08-01T13:49:58;1.30;;;0.60;;
27684;SDS011;46113;50.130;8.526;2023-08-01T13:52:25;2.88;;;0.98;;
27684;SDS011;46113;50.130;8.526;2023-08-01T13:54:52;1.30;;;0.50;;
27684;SDS011;46113;50.130;8.526;2023-08-01T13:57:18;2.05;;;0.70;;
27684;SDS011;46113;50.130;8.526;2023-08-01T13:59:45;1.92;;;1.00;;
27684;SDS011;46113;50.130;8.526;2023-08-01T14:02:36;1.05;;;0.60;;
27684;SDS011;46113;50.130;8.526;2023-08-01T14:05:03;0.85;;;0.50;;
27684;SDS011;46113;50.130;8.526;2023-08-01T14:07:30;2.80;;;0.65;;
27684;SDS011;46113;50.130;8.526;2023-08-01T14:09:57;2.05;;;0.57;;
27684;SDS011;46113;50.130;8.526;2023-08-01T14:12:23;2.85;;;0.50;;
27684;SDS011;46113;50.130;8.526;2023-08-01T14:14:51;0.68;;;0.47;;
27684;SDS011;46113;50.130;8.526;2023-08-01T14:17:17;2.40;;;0.47;;
27684;SDS011;46113;50.130;8.526;2023-08-01T14:19:44;1.17;;;0.68;;
27684;SDS011;46113;50.130;8.526;2023-08-01T14:22:10;1.05;;;0.52;;
27684;SDS011;46113;50.130;8.526;2023-08-01T14:24:37;1.20;;;0.60;;
27684;SDS011;46113;50.130;8.526;2023-08-01T14:27:04;2.45;;;0.63;;
27684;SDS011;46113;50.130;8.526;2023-08-01T14:29:31;1.58;;;0.60;;
27684;SDS011;46113;50.130;8.526;2023-08-01T14:31:57;5.50;;;0.80;;
27684;SDS011;46113;50.130;8.526;2023-08-01T14:34:24;1.77;;;0.77;;
27684;SDS011;46113;50.130;8.526;2023-08-01T14:36:51;1.08;;;0.52;;
27684;SDS011;46113;50.130;8.526;2023-08-01T14:39:17;1.10;;;0.50;;
27684;SDS011;46113;50.130;8.526;2023-08-01T14:41:49;1.23;;;0.70;;
27684;SDS011;46113;50.130;8.526;2023-08-01T14:44:19;1.75;;;0.55;;
27684;SDS011;46113;50.130;8.526;2023-08-01T14:46:45;1.85;;;0.90;;
27684;SDS011;46113;50.130;8.526;2023-08-01T14:49:12;2.55;;;1.10;;
27684;SDS011;46113;50.130;8.526;2023-08-01T14:51:39;5.25;;;1.13;;
27684;SDS011;46113;50.130;8.526;2023-08-01T14:54:06;0.77;;;0.65;;
27684;SDS011;46113;50.130;8.526;2023-08-01T14:56:32;1.58;;;0.85;;
27684;SDS011;46113;50.130;8.526;2023-08-01T14:58:59;1.20;;;0.57;;
27684;SDS011;46113;50.130;8.526;2023-08-01T15:01:26;0.50;;;0.40;;
27684;SDS011;46113;50.130;8.526;2023-08-01T15:03:53;3.40;;;0.77;;
27684;SDS011;46113;50.130;8.526;2023-08-01T15:06:20;1.15;;;0.70;;
27684;SDS011;46113;50.130;8.526;2023-08-01T15:08:47;0.82;;;0.50;;
27684;SDS011;46113;50.130;8.526;2023-08-01T15:11:13;1.17;;;0.50;;